sensor_id;sensor_type;location;lat;lon;timestamp;noise_LAeq;noise_LA_min;noise_LA_max;noise_LA01;noise_LA95
64642;Laerm;59936;51.490;5.436;2023-05-19T00:04:43;38.71;35.68;43.49;;
64642;Laerm;59936;51.490;5.436;2023-05-19T00:07:17;41.45;35.65;61.22;;
64642;Laerm;59936;51.490;5.436;2023-05-19T00:09:46;40.11;36.23;46.21;;
64642;Laerm;59936;51.490;5.436;2023-05-19T00:12:15;40.51;36.77;45.73;;
64642;Laerm;59936;51.490;5.436;2023-05-19T00:14:44;41.16;37.78;46.28;;
64642;Laerm;59936;51.490;5.436;2023-05-19T00:17:13;39.68;35.32;45.72;;
64642;Laerm;59936;51.490;5.436;2023-05-19T00:19:42;39.98;35.90;46.66;;
64642;Laerm;59936;51.490;5.436;2023-05-19T00:22:10;38.88;35.92;46.22;;
64642;Laerm;59936;51.490;5.436;2023-05-19T00:24:39;39.12;35.79;44.93;;
64642;Laerm;59936;51.490;5.436;2023-05-19T00:27:07;39.47;34.46;48.11;;
64642;Laerm;59936;51.490;5.436;2023-05-19T00:29:36;37.82;35.27;42.50;;
64642;Laerm;59936;51.490;5.436;2023-05-19T00:32:05;38.27;34.74;42.80;;
64642;Laerm;59936;51.490;5.436;2023-05-19T00:34:33;38.38;34.21;45.78;;
64642;Laerm;59936;51.490;5.436;2023-05-19T00:37:02;37.93;34.30;42.95;;
64642;Laerm;59936;51.490;5.436;2023-05-19T00:39:30;39.76;36.07;47.41;;
64642;Laerm;59936;51.490;5.436;2023-05-19T00:41:59;37.02;34.26;41.65;;
64642;Laerm;59936;51.490;5.436;2023-05-19T00:44:27;38.10;34.48;48.57;;
64642;Laerm;59936;51.490;5.436;2023-05-19T00:46:56;37.56;35.10;40.94;;
64642;Laerm;59936;51.490;5.436;2023-05-19T00:49:25;38.19;35.67;42.60;;
64642;Laerm;59936;51.490;5.436;2023-05-19T00:51:54;38.39;36.09;42.04;;
64642;Laerm;59936;51.490;5.436;2023-05-19T00:54:23;38.14;34.63;45.06;;
64642;Laerm;59936;51.490;5.436;2023-05-19T00:56:53;39.59;35.49;46.89;;
64642;Laerm;59936;51.490;5.436;2023-05-19T00:59:22;40.42;35.75;47.49;;
64642;Laerm;59936;51.490;5.436;2023-05-19T01:01:51;38.79;36.05;46.61;;
64642;Laerm;59936;51.490;5.436;2023-05-19T01:04:21;37.75;34.68;44.50;;
64642;Laerm;59936;51.490;5.436;2023-05-19T01:06:50;40.26;36.74;47.26;;
64642;Laerm;59936;51.490;5.436;2023-05-19T01:09:21;41.55;36.87;47.65;;
64642;Laerm;59936;51.490;5.436;2023-05-19T01:11:50;40.84;35.98;45.97;;
64642;Laerm;59936;51.490;5.436;2023-05-19T01:14:19;40.05;35.30;46.32;;
64642;Laerm;59936;51.490;5.436;2023-05-19T01:17:07;39.41;35.55;47.20;;
64642;Laerm;59936;51.490;5.436;2023-05-19T01:19:56;40.53;35.85;47.56;;
64642;Laerm;59936;51.490;5.436;2023-05-19T01:31:25;40.84;35.75;54.20;;
64642;Laerm;59936;51.490;5.436;2023-05-19T01:33:56;39.16;36.58;42.89;;
64642;Laerm;59936;51.490;5.436;2023-05-19T01:36:26;41.23;37.99;45.53;;
64642;Laerm;59936;51.490;5.436;2023-05-19T01:38:58;39.99;35.96;45.48;;
64642;Laerm;59936;51.490;5.436;2023-05-19T01:41:29;40.79;37.44;51.17;;
64642;Laerm;59936;51.490;5.436;2023-05-19T01:43:58;38.91;36.09;48.11;;
64642;Laerm;59936;51.490;5.436;2023-05-19T01:46:27;39.21;36.18;45.73;;
64642;Laerm;59936;51.490;5.436;2023-05-19T01:48:59;38.80;35.26;44.33;;
64642;Laerm;59936;51.490;5.436;2023-05-19T01:51:29;41.73;37.91;48.78;;
64642;Laerm;59936;51.490;5.436;2023-05-19T01:54:00;40.87;36.86;48.78;;
64642;Laerm;59936;51.490;5.436;2023-05-19T01:59:56;41.45;36.38;49.33;;
64642;Laerm;59936;51.490;5.436;2023-05-19T02:02:42;37.43;34.76;43.31;;
64642;Laerm;59936;51.490;5.436;2023-05-19T02:05:30;40.22;35.10;48.80;;
64642;Laerm;59936;51.490;5.436;2023-05-19T02:08:29;40.41;36.78;46.10;;
64642;Laerm;59936;51.490;5.436;2023-05-19T02:11:14;40.77;36.35;46.82;;
64642;Laerm;59936;51.490;5.436;2023-05-19T02:13:49;40.26;36.79;45.09;;
64642;Laerm;59936;51.490;5.436;2023-05-19T02:16:27;40.39;35.63;45.82;;
64642;Laerm;59936;51.490;5.436;2023-05-19T02:18:59;40.94;37.28;49.86;;
64642;Laerm;59936;51.490;5.436;2023-05-19T02:21:28;41.07;37.17;46.51;;
64642;Laerm;59936;51.490;5.436;2023-05-19T02:23:56;41.67;38.15;46.59;;
64642;Laerm;59936;51.490;5.436;2023-05-19T02:26:25;41.83;37.41;45.78;;
64642;Laerm;59936;51.490;5.436;2023-05-19T02:28:53;40.94;37.69;48.70;;
64642;Laerm;59936;51.490;5.436;2023-05-19T02:31:22;40.98;37.34;47.69;;
64642;Laerm;59936;51.490;5.436;2023-05-19T02:33:51;41.44;37.77;49.42;;
64642;Laerm;59936;51.490;5.436;2023-05-19T02:36:19;43.37;37.57;52.76;;
64642;Laerm;59936;51.490;5.436;2023-05-19T02:38:48;45.00;38.43;54.72;;
64642;Laerm;59936;51.490;5.436;2023-05-19T02:41:16;49.00;40.30;61.36;;
64642;Laerm;59936;51.490;5.436;2023-05-19T02:43:45;49.57;39.89;61.19;;
64642;Laerm;59936;51.490;5.436;2023-05-19T02:46:13;50.32;39.44;61.60;;
64642;Laerm;59936;51.490;5.436;2023-05-19T02:48:42;50.98;39.79;61.74;;
64642;Laerm;59936;51.490;5.436;2023-05-19T02:51:11;51.43;40.06;64.85;;
64642;Laerm;59936;51.490;5.436;2023-05-19T02:53:39;50.68;39.87;62.75;;
64642;Laerm;59936;51.490;5.436;2023-05-19T02:56:08;50.94;40.10;60.99;;
64642;Laerm;59936;51.490;5.436;2023-05-19T02:58:36;53.42;41.42;62.36;;
64642;Laerm;59936;51.490;5.436;2023-05-19T03:01:05;51.96;40.99;61.07;;
64642;Laerm;59936;51.490;5.436;2023-05-19T03:03:34;58.41;41.90;72.60;;
64642;Laerm;59936;51.490;5.436;2023-05-19T03:06:07;61.01;43.45;72.04;;
64642;Laerm;59936;51.490;5.436;2023-05-19T03:08:41;61.88;42.60;73.52;;
64642;Laerm;59936;51.490;5.436;2023-05-19T03:11:10;56.22;43.22;68.33;;
64642;Laerm;59936;51.490;5.436;2023-05-19T03:13:44;57.71;43.90;69.40;;
64642;Laerm;59936;51.490;5.436;2023-05-19T03:16:17;61.44;42.46;72.33;;
64642;Laerm;59936;51.490;5.436;2023-05-19T03:18:52;65.76;43.85;90.27;;
64642;Laerm;59936;51.490;5.436;2023-05-19T03:21:21;57.83;42.86;69.54;;
64642;Laerm;59936;51.490;5.436;2023-05-19T03:23:49;51.47;42.44;62.08;;
64642;Laerm;59936;51.490;5.436;2023-05-19T03:26:18;53.07;43.48;63.33;;
64642;Laerm;59936;51.490;5.436;2023-05-19T03:28:46;54.47;42.87;63.15;;
64642;Laerm;59936;51.490;5.436;2023-05-19T03:31:15;51.63;43.02;62.87;;
64642;Laerm;59936;51.490;5.436;2023-05-19T03:33:43;51.03;42.35;59.03;;
64642;Laerm;59936;51.490;5.436;2023-05-19T03:36:12;51.75;42.99;66.22;;
64642;Laerm;59936;51.490;5.436;2023-05-19T03:38:40;53.02;43.17;61.02;;
64642;Laerm;59936;51.490;5.436;2023-05-19T03:41:09;53.90;43.72;61.66;;
64642;Laerm;59936;51.490;5.436;2023-05-19T03:43:38;54.44;43.57;61.51;;
64642;Laerm;59936;51.490;5.436;2023-05-19T03:46:06;52.36;44.68;62.72;;
64642;Laerm;59936;51.490;5.436;2023-05-19T03:48:35;53.01;44.25;64.79;;
64642;Laerm;59936;51.490;5.436;2023-05-19T03:51:03;51.26;43.31;63.37;;
64642;Laerm;59936;51.490;5.436;2023-05-19T03:53:32;49.20;43.59;59.21;;
64642;Laerm;59936;51.490;5.436;2023-05-19T03:56:00;48.09;42.92;58.32;;
64642;Laerm;59936;51.490;5.436;2023-05-19T03:58:29;48.80;43.28;60.18;;
64642;Laerm;59936;51.490;5.436;2023-05-19T04:00:58;48.62;43.32;58.59;;
64642;Laerm;59936;51.490;5.436;2023-05-19T04:03:26;49.21;43.37;71.35;;
64642;Laerm;59936;51.490;5.436;2023-05-19T04:05:55;47.66;43.21;61.37;;
64642;Laerm;59936;51.490;5.436;2023-05-19T04:08:23;49.14;42.37;58.25;;
64642;Laerm;59936;51.490;5.436;2023-05-19T04:10:52;50.53;43.10;58.37;;
64642;Laerm;59936;51.490;5.436;2023-05-19T04:13:20;50.03;42.66;59.98;;
64642;Laerm;59936;51.490;5.436;2023-05-19T04:15:49;50.26;43.00;62.75;;
64642;Laerm;59936;51.490;5.436;2023-05-19T04:18:18;49.85;43.36;64.40;;
64642;Laerm;59936;51.490;5.436;2023-05-19T04:20:46;50.23;43.68;63.31;;
64642;Laerm;59936;51.490;5.436;2023-05-19T04:23:15;49.45;43.86;61.64;;
64642;Laerm;59936;51.490;5.436;2023-05-19T04:25:43;48.33;43.68;56.44;;
64642;Laerm;59936;51.490;5.436;2023-05-19T04:28:12;50.49;42.75;68.47;;
64642;Laerm;59936;51.490;5.436;2023-05-19T04:30:40;49.10;43.55;57.94;;
64642;Laerm;59936;51.490;5.436;2023-05-19T04:33:09;50.28;44.31;58.75;;
64642;Laerm;59936;51.490;5.436;2023-05-19T04:35:38;50.00;43.53;59.97;;
64642;Laerm;59936;51.490;5.436;2023-05-19T04:38:06;49.24;43.54;58.13;;
64642;Laerm;59936;51.490;5.436;2023-05-19T04:40:35;49.61;44.19;58.31;;
64642;Laerm;59936;51.490;5.436;2023-05-19T04:43:03;50.66;44.93;62.50;;
64642;Laerm;59936;51.490;5.436;2023-05-19T04:45:32;50.03;44.22;57.66;;
64642;Laerm;59936;51.490;5.436;2023-05-19T04:48:00;51.19;45.08;60.54;;
64642;Laerm;59936;51.490;5.436;2023-05-19T04:50:29;50.80;44.18;57.98;;
64642;Laerm;59936;51.490;5.436;2023-05-19T04:52:58;49.52;42.75;57.31;;
64642;Laerm;59936;51.490;5.436;2023-05-19T04:55:26;48.92;44.63;55.52;;
64642;Laerm;59936;51.490;5.436;2023-05-19T04:57:59;52.12;44.00;69.07;;
64642;Laerm;59936;51.490;5.436;2023-05-19T05:00:28;49.19;43.40;65.45;;
64642;Laerm;59936;51.490;5.436;2023-05-19T05:02:57;49.49;43.66;60.58;;
64642;Laerm;59936;51.490;5.436;2023-05-19T05:05:25;61.55;45.32;75.40;;
64642;Laerm;59936;51.490;5.436;2023-05-19T05:07:59;61.00;44.49;72.85;;
64642;Laerm;59936;51.490;5.436;2023-05-19T05:10:28;50.25;44.47;60.65;;
64642;Laerm;59936;51.490;5.436;2023-05-19T05:12:57;49.00;44.08;59.51;;
64642;Laerm;59936;51.490;5.436;2023-05-19T05:15:26;60.96;45.62;72.54;;
64642;Laerm;59936;51.490;5.436;2023-05-19T05:17:55;49.06;44.85;58.45;;
64642;Laerm;59936;51.490;5.436;2023-05-19T05:20:30;62.76;43.90;75.71;;
64642;Laerm;59936;51.490;5.436;2023-05-19T05:22:59;61.24;43.77;74.42;;
64642;Laerm;59936;51.490;5.436;2023-05-19T05:25:28;48.47;44.40;58.81;;
64642;Laerm;59936;51.490;5.436;2023-05-19T05:27:57;49.64;44.41;66.81;;
64642;Laerm;59936;51.490;5.436;2023-05-19T05:30:25;49.40;43.77;59.73;;
64642;Laerm;59936;51.490;5.436;2023-05-19T05:32:58;62.38;44.64;76.17;;
64642;Laerm;59936;51.490;5.436;2023-05-19T05:35:27;52.36;43.48;64.94;;
64642;Laerm;59936;51.490;5.436;2023-05-19T05:37:55;53.00;43.21;73.69;;
64642;Laerm;59936;51.490;5.436;2023-05-19T05:40:31;63.59;42.73;75.63;;
64642;Laerm;59936;51.490;5.436;2023-05-19T05:42:59;53.26;43.75;65.55;;
64642;Laerm;59936;51.490;5.436;2023-05-19T05:45:28;52.11;42.96;64.11;;
64642;Laerm;59936;51.490;5.436;2023-05-19T05:48:01;59.69;43.71;73.30;;
64642;Laerm;59936;51.490;5.436;2023-05-19T05:50:37;60.90;44.14;73.14;;
64642;Laerm;59936;51.490;5.436;2023-05-19T05:53:06;49.10;43.29;58.88;;
64642;Laerm;59936;51.490;5.436;2023-05-19T05:55:36;48.63;42.86;58.49;;
64642;Laerm;59936;51.490;5.436;2023-05-19T05:58:05;53.64;42.52;66.58;;
64642;Laerm;59936;51.490;5.436;2023-05-19T06:00:33;55.23;42.50;67.63;;
64642;Laerm;59936;51.490;5.436;2023-05-19T06:03:02;50.31;41.98;64.45;;
64642;Laerm;59936;51.490;5.436;2023-05-19T06:05:31;50.71;42.47;65.46;;
64642;Laerm;59936;51.490;5.436;2023-05-19T06:08:03;56.67;42.91;71.46;;
64642;Laerm;59936;51.490;5.436;2023-05-19T06:10:39;57.24;42.64;70.84;;
64642;Laerm;59936;51.490;5.436;2023-05-19T06:13:13;56.78;41.73;78.27;;
64642;Laerm;59936;51.490;5.436;2023-05-19T06:15:42;52.45;41.63;64.12;;
64642;Laerm;59936;51.490;5.436;2023-05-19T06:18:10;53.53;41.98;65.94;;
64642;Laerm;59936;51.490;5.436;2023-05-19T06:20:40;52.55;42.47;66.08;;
64642;Laerm;59936;51.490;5.436;2023-05-19T06:23:09;48.43;41.22;68.42;;
64642;Laerm;59936;51.490;5.436;2023-05-19T06:25:37;48.94;40.55;70.49;;
64642;Laerm;59936;51.490;5.436;2023-05-19T06:28:06;47.74;41.93;57.91;;
64642;Laerm;59936;51.490;5.436;2023-05-19T06:30:40;47.11;41.52;55.85;;
64642;Laerm;59936;51.490;5.436;2023-05-19T06:33:09;47.24;41.29;57.77;;
64642;Laerm;59936;51.490;5.436;2023-05-19T06:35:38;46.73;38.92;59.70;;
64642;Laerm;59936;51.490;5.436;2023-05-19T06:38:06;47.22;39.87;60.94;;
64642;Laerm;59936;51.490;5.436;2023-05-19T06:40:35;47.10;41.04;60.43;;
64642;Laerm;59936;51.490;5.436;2023-05-19T06:43:04;47.75;39.73;63.17;;
64642;Laerm;59936;51.490;5.436;2023-05-19T06:45:32;50.81;40.40;65.70;;
64642;Laerm;59936;51.490;5.436;2023-05-19T06:48:02;51.68;40.38;64.72;;
64642;Laerm;59936;51.490;5.436;2023-05-19T06:50:30;45.57;40.96;58.26;;
64642;Laerm;59936;51.490;5.436;2023-05-19T06:52:59;55.02;39.48;71.28;;
64642;Laerm;59936;51.490;5.436;2023-05-19T06:55:27;55.56;39.48;68.25;;
64642;Laerm;59936;51.490;5.436;2023-05-19T06:57:56;55.58;39.50;69.97;;
64642;Laerm;59936;51.490;5.436;2023-05-19T07:00:25;51.54;40.97;70.41;;
64642;Laerm;59936;51.490;5.436;2023-05-19T07:02:53;45.39;40.15;54.46;;
64642;Laerm;59936;51.490;5.436;2023-05-19T07:05:22;45.37;41.46;52.29;;
64642;Laerm;59936;51.490;5.436;2023-05-19T07:07:50;62.87;40.29;76.50;;
64642;Laerm;59936;51.490;5.436;2023-05-19T07:10:19;47.73;39.66;63.24;;
64642;Laerm;59936;51.490;5.436;2023-05-19T07:12:47;62.97;40.24;75.66;;
64642;Laerm;59936;51.490;5.436;2023-05-19T07:15:16;59.37;40.22;73.83;;
64642;Laerm;59936;51.490;5.436;2023-05-19T07:17:49;55.75;39.40;70.32;;
64642;Laerm;59936;51.490;5.436;2023-05-19T07:20:18;60.62;41.96;74.20;;
64642;Laerm;59936;51.490;5.436;2023-05-19T07:22:47;51.86;39.63;71.93;;
64642;Laerm;59936;51.490;5.436;2023-05-19T07:25:15;54.21;40.19;70.36;;
64642;Laerm;59936;51.490;5.436;2023-05-19T07:27:44;50.34;40.18;64.04;;
64642;Laerm;59936;51.490;5.436;2023-05-19T07:30:13;53.04;40.33;70.80;;
64642;Laerm;59936;51.490;5.436;2023-05-19T07:32:46;59.59;39.52;71.38;;
64642;Laerm;59936;51.490;5.436;2023-05-19T07:35:20;56.61;39.68;82.05;;
64642;Laerm;59936;51.490;5.436;2023-05-19T07:37:50;61.62;41.14;76.08;;
64642;Laerm;59936;51.490;5.436;2023-05-19T07:40:19;49.50;39.39;67.53;;
64642;Laerm;59936;51.490;5.436;2023-05-19T07:42:48;45.54;39.30;55.20;;
64642;Laerm;59936;51.490;5.436;2023-05-19T07:45:17;45.82;39.83;56.24;;
64642;Laerm;59936;51.490;5.436;2023-05-19T07:47:46;49.09;40.27;64.30;;
64642;Laerm;59936;51.490;5.436;2023-05-19T07:50:14;47.29;39.38;61.85;;
64642;Laerm;59936;51.490;5.436;2023-05-19T07:52:43;60.39;39.80;73.72;;
64642;Laerm;59936;51.490;5.436;2023-05-19T07:55:15;46.92;40.25;59.14;;
64642;Laerm;59936;51.490;5.436;2023-05-19T07:57:43;46.68;40.03;58.61;;
64642;Laerm;59936;51.490;5.436;2023-05-19T08:00:13;45.89;39.28;57.93;;
64642;Laerm;59936;51.490;5.436;2023-05-19T08:02:45;52.30;39.59;68.35;;
64642;Laerm;59936;51.490;5.436;2023-05-19T08:05:17;58.50;40.86;71.42;;
64642;Laerm;59936;51.490;5.436;2023-05-19T08:07:50;56.24;41.31;71.31;;
64642;Laerm;59936;51.490;5.436;2023-05-19T08:10:19;48.70;41.76;66.19;;
64642;Laerm;59936;51.490;5.436;2023-05-19T08:12:48;46.00;39.32;57.65;;
64642;Laerm;59936;51.490;5.436;2023-05-19T08:15:19;58.82;40.51;73.30;;
64642;Laerm;59936;51.490;5.436;2023-05-19T08:17:48;49.92;42.03;64.32;;
64642;Laerm;59936;51.490;5.436;2023-05-19T08:20:17;52.62;39.96;66.58;;
64642;Laerm;59936;51.490;5.436;2023-05-19T08:22:45;58.33;41.57;72.95;;
64642;Laerm;59936;51.490;5.436;2023-05-19T08:25:14;58.15;41.89;72.88;;
64642;Laerm;59936;51.490;5.436;2023-05-19T08:27:42;49.08;40.52;63.83;;
64642;Laerm;59936;51.490;5.436;2023-05-19T08:30:17;60.19;40.54;74.24;;
64642;Laerm;59936;51.490;5.436;2023-05-19T08:32:45;48.60;40.81;60.66;;
64642;Laerm;59936;51.490;5.436;2023-05-19T08:35:14;50.15;40.29;59.63;;
64642;Laerm;59936;51.490;5.436;2023-05-19T08:37:42;59.09;40.92;73.15;;
64642;Laerm;59936;51.490;5.436;2023-05-19T08:40:16;48.76;40.21;59.16;;
64642;Laerm;59936;51.490;5.436;2023-05-19T08:42:45;47.85;40.64;58.69;;
64642;Laerm;59936;51.490;5.436;2023-05-19T08:45:16;52.22;40.92;63.00;;
64642;Laerm;59936;51.490;5.436;2023-05-19T08:47:45;49.67;40.03;58.71;;
64642;Laerm;59936;51.490;5.436;2023-05-19T08:50:23;48.73;40.57;60.29;;
64642;Laerm;59936;51.490;5.436;2023-05-19T08:53:07;51.85;42.23;62.61;;
64642;Laerm;59936;51.490;5.436;2023-05-19T08:56:00;52.01;41.66;66.54;;
64642;Laerm;59936;51.490;5.436;2023-05-19T08:58:30;54.02;40.69;69.29;;
64642;Laerm;59936;51.490;5.436;2023-05-19T09:01:00;54.65;40.52;68.99;;
64642;Laerm;59936;51.490;5.436;2023-05-19T09:03:32;51.37;40.77;65.68;;
64642;Laerm;59936;51.490;5.436;2023-05-19T09:06:05;50.32;41.19;63.37;;
64642;Laerm;59936;51.490;5.436;2023-05-19T09:08:34;49.66;40.57;62.87;;
64642;Laerm;59936;51.490;5.436;2023-05-19T09:11:06;50.46;40.80;59.28;;
64642;Laerm;59936;51.490;5.436;2023-05-19T09:13:35;49.82;41.05;59.84;;
64642;Laerm;59936;51.490;5.436;2023-05-19T09:16:05;60.79;41.79;75.39;;
64642;Laerm;59936;51.490;5.436;2023-05-19T09:18:37;48.65;40.66;66.03;;
64642;Laerm;59936;51.490;5.436;2023-05-19T09:21:07;56.28;39.74;71.95;;
64642;Laerm;59936;51.490;5.436;2023-05-19T09:23:35;61.38;40.26;76.93;;
64642;Laerm;59936;51.490;5.436;2023-05-19T09:26:04;59.95;42.92;77.66;;
64642;Laerm;59936;51.490;5.436;2023-05-19T09:28:35;52.36;43.34;62.60;;
64642;Laerm;59936;51.490;5.436;2023-05-19T09:31:08;61.19;42.31;76.54;;
64642;Laerm;59936;51.490;5.436;2023-05-19T09:33:39;47.65;41.59;60.26;;
64642;Laerm;59936;51.490;5.436;2023-05-19T09:36:13;54.03;43.70;70.13;;
64642;Laerm;59936;51.490;5.436;2023-05-19T09:38:45;53.54;44.32;70.12;;
64642;Laerm;59936;51.490;5.436;2023-05-19T09:41:14;49.90;40.94;66.85;;
64642;Laerm;59936;51.490;5.436;2023-05-19T09:43:53;49.43;40.69;66.31;;
64642;Laerm;59936;51.490;5.436;2023-05-19T09:46:26;59.72;41.82;85.18;;
64642;Laerm;59936;51.490;5.436;2023-05-19T09:48:57;51.18;41.81;64.44;;
64642;Laerm;59936;51.490;5.436;2023-05-19T09:51:27;51.44;41.14;64.89;;
64642;Laerm;59936;51.490;5.436;2023-05-19T09:53:57;52.17;41.91;71.91;;
64642;Laerm;59936;51.490;5.436;2023-05-19T09:56:33;52.36;40.73;75.25;;
64642;Laerm;59936;51.490;5.436;2023-05-19T09:59:02;48.64;41.47;59.47;;
64642;Laerm;59936;51.490;5.436;2023-05-19T10:01:31;49.49;41.64;60.97;;
64642;Laerm;59936;51.490;5.436;2023-05-19T10:04:02;48.94;40.42;58.99;;
64642;Laerm;59936;51.490;5.436;2023-05-19T10:06:31;49.19;41.14;60.03;;
64642;Laerm;59936;51.490;5.436;2023-05-19T10:09:01;62.98;40.44;77.42;;
64642;Laerm;59936;51.490;5.436;2023-05-19T10:11:30;52.65;41.47;69.78;;
64642;Laerm;59936;51.490;5.436;2023-05-19T10:13:59;54.62;41.95;68.28;;
64642;Laerm;59936;51.490;5.436;2023-05-19T10:16:29;51.20;40.89;65.77;;
64642;Laerm;59936;51.490;5.436;2023-05-19T10:18:59;48.60;41.78;58.93;;
64642;Laerm;59936;51.490;5.436;2023-05-19T10:21:28;50.19;41.57;60.05;;
64642;Laerm;59936;51.490;5.436;2023-05-19T10:23:57;47.96;40.72;65.58;;
64642;Laerm;59936;51.490;5.436;2023-05-19T10:26:30;62.14;40.90;78.07;;
64642;Laerm;59936;51.490;5.436;2023-05-19T10:29:01;52.65;40.33;69.36;;
64642;Laerm;59936;51.490;5.436;2023-05-19T10:31:32;56.60;40.01;70.30;;
64642;Laerm;59936;51.490;5.436;2023-05-19T10:37:23;47.25;40.84;58.28;;
64642;Laerm;59936;51.490;5.436;2023-05-19T10:39:56;47.29;41.37;57.68;;
64642;Laerm;59936;51.490;5.436;2023-05-19T10:42:42;46.74;41.26;57.93;;
64642;Laerm;59936;51.490;5.436;2023-05-19T10:45:26;51.29;40.46;67.86;;
64642;Laerm;59936;51.490;5.436;2023-05-19T10:48:00;63.72;43.11;78.17;;
64642;Laerm;59936;51.490;5.436;2023-05-19T10:50:35;48.92;41.49;62.76;;
64642;Laerm;59936;51.490;5.436;2023-05-19T10:53:03;50.33;40.44;64.05;;
64642;Laerm;59936;51.490;5.436;2023-05-19T10:55:54;60.83;41.45;75.12;;
64642;Laerm;59936;51.490;5.436;2023-05-19T11:01:18;62.35;41.54;79.35;;
64642;Laerm;59936;51.490;5.436;2023-05-19T11:03:50;56.63;40.25;72.03;;
64642;Laerm;59936;51.490;5.436;2023-05-19T11:06:30;55.28;41.82;68.54;;
64642;Laerm;59936;51.490;5.436;2023-05-19T11:11:51;55.52;40.46;72.88;;
64642;Laerm;59936;51.490;5.436;2023-05-19T11:14:26;57.37;42.63;72.68;;
64642;Laerm;59936;51.490;5.436;2023-05-19T11:17:00;60.69;42.98;75.37;;
64642;Laerm;59936;51.490;5.436;2023-05-19T11:19:35;51.16;40.77;63.23;;
64642;Laerm;59936;51.490;5.436;2023-05-19T11:22:12;62.64;41.59;78.23;;
64642;Laerm;59936;51.490;5.436;2023-05-19T11:24:46;57.62;40.34;72.84;;
64642;Laerm;59936;51.490;5.436;2023-05-19T11:27:28;55.39;40.10;70.30;;
64642;Laerm;59936;51.490;5.436;2023-05-19T11:32:40;62.32;42.93;74.97;;
64642;Laerm;59936;51.490;5.436;2023-05-19T11:35:09;56.54;44.79;69.48;;
64642;Laerm;59936;51.490;5.436;2023-05-19T11:37:38;48.65;41.96;58.87;;
64642;Laerm;59936;51.490;5.436;2023-05-19T11:40:07;48.57;42.03;59.66;;
64642;Laerm;59936;51.490;5.436;2023-05-19T11:42:36;48.81;40.93;58.55;;
64642;Laerm;59936;51.490;5.436;2023-05-19T11:45:05;52.75;40.78;65.73;;
64642;Laerm;59936;51.490;5.436;2023-05-19T11:47:34;58.57;40.44;71.54;;
64642;Laerm;59936;51.490;5.436;2023-05-19T11:50:06;70.95;39.62;83.54;;
64642;Laerm;59936;51.490;5.436;2023-05-19T11:52:44;72.88;63.65;85.15;;
64642;Laerm;59936;51.490;5.436;2023-05-19T11:55:19;64.84;42.47;70.45;;
64642;Laerm;59936;51.490;5.436;2023-05-19T12:00:44;55.87;40.42;74.49;;
64642;Laerm;59936;51.490;5.436;2023-05-19T12:03:12;49.57;39.69;72.25;;
64642;Laerm;59936;51.490;5.436;2023-05-19T12:05:47;48.24;39.73;63.44;;
64642;Laerm;59936;51.490;5.436;2023-05-19T12:08:21;71.60;40.19;80.43;;
64642;Laerm;59936;51.490;5.436;2023-05-19T12:10:55;72.21;43.47;82.35;;
64642;Laerm;59936;51.490;5.436;2023-05-19T12:13:24;49.06;42.63;60.81;;
64642;Laerm;59936;51.490;5.436;2023-05-19T12:15:52;50.90;42.82;62.93;;
64642;Laerm;59936;51.490;5.436;2023-05-19T12:18:21;48.74;44.52;64.82;;
64642;Laerm;59936;51.490;5.436;2023-05-19T12:20:55;69.78;44.47;77.18;;
64642;Laerm;59936;51.490;5.436;2023-05-19T12:23:28;69.51;42.18;77.31;;
64642;Laerm;59936;51.490;5.436;2023-05-19T12:26:02;70.36;64.84;76.88;;
64642;Laerm;59936;51.490;5.436;2023-05-19T12:28:31;66.57;40.65;75.76;;
64642;Laerm;59936;51.490;5.436;2023-05-19T12:31:01;53.57;40.57;67.82;;
64642;Laerm;59936;51.490;5.436;2023-05-19T12:33:32;60.51;42.19;75.02;;
64642;Laerm;59936;51.490;5.436;2023-05-19T12:36:00;53.79;41.52;69.17;;
64642;Laerm;59936;51.490;5.436;2023-05-19T12:38:29;53.78;40.88;67.28;;
64642;Laerm;59936;51.490;5.436;2023-05-19T12:40:58;53.79;41.62;67.34;;
64642;Laerm;59936;51.490;5.436;2023-05-19T12:43:26;55.73;44.23;67.57;;
64642;Laerm;59936;51.490;5.436;2023-05-19T12:45:55;52.90;39.99;68.05;;
64642;Laerm;59936;51.490;5.436;2023-05-19T12:48:24;50.37;38.32;67.33;;
64642;Laerm;59936;51.490;5.436;2023-05-19T12:50:52;50.11;38.65;68.84;;
64642;Laerm;59936;51.490;5.436;2023-05-19T12:53:21;60.37;43.30;74.05;;
64642;Laerm;59936;51.490;5.436;2023-05-19T12:55:50;53.86;39.96;69.58;;
64642;Laerm;59936;51.490;5.436;2023-05-19T12:58:19;63.02;41.49;76.85;;
64642;Laerm;59936;51.490;5.436;2023-05-19T13:00:47;54.25;43.80;67.08;;
64642;Laerm;59936;51.490;5.436;2023-05-19T13:03:22;59.79;43.91;72.69;;
64642;Laerm;59936;51.490;5.436;2023-05-19T13:05:50;57.56;42.13;71.57;;
64642;Laerm;59936;51.490;5.436;2023-05-19T13:08:23;54.75;42.77;70.24;;
64642;Laerm;59936;51.490;5.436;2023-05-19T13:10:51;55.24;41.81;70.81;;
64642;Laerm;59936;51.490;5.436;2023-05-19T13:13:20;55.30;43.76;69.80;;
64642;Laerm;59936;51.490;5.436;2023-05-19T13:15:48;56.22;42.95;71.33;;
64642;Laerm;59936;51.490;5.436;2023-05-19T13:18:23;65.49;43.34;74.99;;
64642;Laerm;59936;51.490;5.436;2023-05-19T13:20:57;69.18;43.60;75.24;;
64642;Laerm;59936;51.490;5.436;2023-05-19T13:23:26;56.45;41.92;75.11;;
64642;Laerm;59936;51.490;5.436;2023-05-19T13:25:54;57.41;43.13;74.96;;
64642;Laerm;59936;51.490;5.436;2023-05-19T13:28:23;53.95;43.22;69.74;;
64642;Laerm;59936;51.490;5.436;2023-05-19T13:30:52;50.20;42.82;72.00;;
64642;Laerm;59936;51.490;5.436;2023-05-19T13:33:26;63.88;39.85;71.92;;
64642;Laerm;59936;51.490;5.436;2023-05-19T13:36:00;65.91;57.35;72.21;;
64642;Laerm;59936;51.490;5.436;2023-05-19T13:38:32;60.05;43.22;70.00;;
64642;Laerm;59936;51.490;5.436;2023-05-19T13:41:07;62.58;57.02;73.91;;
64642;Laerm;59936;51.490;5.436;2023-05-19T13:43:39;61.77;44.43;71.47;;
64642;Laerm;59936;51.490;5.436;2023-05-19T13:46:07;58.29;44.43;69.72;;
64642;Laerm;59936;51.490;5.436;2023-05-19T13:48:41;59.71;45.16;68.40;;
64642;Laerm;59936;51.490;5.436;2023-05-19T13:51:11;59.34;55.87;62.59;;
64642;Laerm;59936;51.490;5.436;2023-05-19T13:53:40;58.41;55.31;64.53;;
64642;Laerm;59936;51.490;5.436;2023-05-19T13:56:08;59.27;40.36;73.36;;
64642;Laerm;59936;51.490;5.436;2023-05-19T13:58:37;48.59;41.91;62.96;;
64642;Laerm;59936;51.490;5.436;2023-05-19T14:01:05;54.10;42.07;67.71;;
64642;Laerm;59936;51.490;5.436;2023-05-19T14:03:40;56.40;41.57;71.20;;
64642;Laerm;59936;51.490;5.436;2023-05-19T14:06:08;63.58;41.78;78.98;;
64642;Laerm;59936;51.490;5.436;2023-05-19T14:08:37;55.74;42.91;69.75;;
64642;Laerm;59936;51.490;5.436;2023-05-19T14:11:06;55.58;42.19;70.06;;
64642;Laerm;59936;51.490;5.436;2023-05-19T14:13:40;59.38;43.53;74.53;;
64642;Laerm;59936;51.490;5.436;2023-05-19T14:16:16;59.97;44.37;74.40;;
64642;Laerm;59936;51.490;5.436;2023-05-19T14:18:45;53.89;42.91;70.55;;
64642;Laerm;59936;51.490;5.436;2023-05-19T14:21:14;61.49;42.34;75.57;;
64642;Laerm;59936;51.490;5.436;2023-05-19T14:23:43;48.10;41.55;65.06;;
64642;Laerm;59936;51.490;5.436;2023-05-19T14:26:14;55.48;41.79;68.62;;
64642;Laerm;59936;51.490;5.436;2023-05-19T14:28:43;54.10;42.25;69.19;;
64642;Laerm;59936;51.490;5.436;2023-05-19T14:31:12;53.14;41.98;70.27;;
64642;Laerm;59936;51.490;5.436;2023-05-19T14:33:40;61.65;44.69;76.60;;